createdAt,value
2017-10-28T00:00:35.032Z,0
2017-10-28T00:01:48.329Z,0
2017-10-28T00:03:01.588Z,0
2017-10-28T00:04:14.330Z,0
2017-10-28T00:05:27.660Z,0
2017-10-28T00:06:40.407Z,0
2017-10-28T00:07:53.668Z,0
2017-10-28T00:09:06.932Z,0
2017-10-28T00:10:20.189Z,0
2017-10-28T00:11:33.424Z,0
2017-10-28T00:12:46.196Z,0
2017-10-28T00:13:57.900Z,0
2017-10-28T00:15:10.634Z,0
2017-10-28T00:16:23.932Z,0
2017-10-28T00:17:37.222Z,0
2017-10-28T00:18:48.890Z,0
2017-10-28T00:20:01.620Z,0
2017-10-28T00:21:14.327Z,0
2017-10-28T00:22:27.072Z,0
2017-10-28T00:23:39.833Z,0
2017-10-28T00:24:53.105Z,0
2017-10-28T00:26:06.063Z,0
2017-10-28T00:27:19.361Z,0
2017-10-28T00:28:31.059Z,0
2017-10-28T00:29:42.718Z,0
2017-10-28T00:30:54.933Z,0
2017-10-28T00:32:08.198Z,0
2017-10-28T00:33:21.461Z,0
2017-10-28T00:34:34.754Z,0
2017-10-28T00:35:48.059Z,0
2017-10-28T00:37:00.822Z,0
2017-10-28T00:38:14.106Z,0
2017-10-28T00:39:27.359Z,0
2017-10-28T00:40:40.288Z,0
2017-10-28T00:41:53.587Z,0
2017-10-28T00:43:06.341Z,0
2017-10-28T00:44:19.250Z,0
2017-10-28T00:45:31.985Z,0
2017-10-28T00:46:45.257Z,0
2017-10-28T00:47:58.024Z,0
2017-10-28T00:49:11.552Z,0
2017-10-28T00:50:23.762Z,0
2017-10-28T00:51:37.219Z,0
2017-10-28T00:52:50.498Z,0
2017-10-28T00:54:03.752Z,0
2017-10-28T00:55:16.520Z,0
2017-10-28T00:56:29.806Z,0
2017-10-28T00:57:42.029Z,0
2017-10-28T00:58:54.771Z,0
2017-10-28T01:00:07.496Z,0
2017-10-28T01:01:19.697Z,0
2017-10-28T01:02:32.455Z,0
2017-10-28T01:03:45.204Z,0
2017-10-28T01:04:58.488Z,0
2017-10-28T01:06:10.711Z,0
2017-10-28T01:07:23.465Z,0
2017-10-28T01:08:36.218Z,0
2017-10-28T01:09:48.447Z,0
2017-10-28T01:11:01.717Z,0
2017-10-28T01:12:14.963Z,0
2017-10-28T01:13:27.133Z,0
2017-10-28T01:14:39.337Z,0
2017-10-28T01:15:52.564Z,0
2017-10-28T01:17:05.874Z,0
2017-10-28T01:18:18.614Z,0
2017-10-28T01:19:30.819Z,0
2017-10-28T01:20:44.092Z,0
2017-10-28T01:21:56.828Z,0
2017-10-28T01:23:09.053Z,0
2017-10-28T01:24:22.285Z,0
2017-10-28T01:25:35.563Z,0
2017-10-28T01:26:48.526Z,0
2017-10-28T01:28:01.844Z,0
2017-10-28T01:29:14.080Z,0
2017-10-28T01:30:26.282Z,0
2017-10-28T01:31:39.006Z,0
2017-10-28T01:32:51.224Z,0
2017-10-28T01:34:04.072Z,0
2017-10-28T01:35:17.339Z,0
2017-10-28T01:36:30.625Z,0
2017-10-28T01:37:42.835Z,0
2017-10-28T01:38:56.147Z,0
2017-10-28T01:40:09.114Z,0
2017-10-28T01:41:21.898Z,0
2017-10-28T01:42:35.156Z,0
2017-10-28T01:43:47.883Z,0
2017-10-28T01:45:00.630Z,0
2017-10-28T01:46:13.933Z,0
2017-10-28T01:47:27.190Z,0
2017-10-28T01:48:40.018Z,0
2017-10-28T01:49:53.264Z,0
2017-10-28T01:51:06.515Z,0
2017-10-28T01:52:18.739Z,0
2017-10-28T01:53:31.967Z,0
2017-10-28T01:54:44.736Z,0
2017-10-28T01:55:57.442Z,0
2017-10-28T01:57:09.627Z,0
2017-10-28T01:58:22.914Z,0
2017-10-28T01:59:35.618Z,0
2017-10-28T02:00:48.881Z,0
2017-10-28T02:02:02.144Z,0
2017-10-28T02:03:15.425Z,0
2017-10-28T02:04:28.749Z,0
2017-10-28T02:05:40.942Z,0
2017-10-28T02:06:53.693Z,0
2017-10-28T02:08:06.404Z,0
2017-10-28T02:09:19.170Z,0
2017-10-28T02:10:32.425Z,0
2017-10-28T02:11:44.642Z,0
2017-10-28T02:12:57.386Z,0
2017-10-28T02:14:09.095Z,0
2017-10-28T02:15:22.393Z,0
2017-10-28T02:16:35.134Z,0
2017-10-28T02:17:47.841Z,0
2017-10-28T02:19:00.069Z,0
2017-10-28T02:20:13.330Z,0
2017-10-28T02:21:26.046Z,0
2017-10-28T02:22:39.332Z,0
2017-10-28T02:23:52.584Z,0
2017-10-28T02:25:05.538Z,0
2017-10-28T02:26:18.859Z,0
2017-10-28T02:27:32.126Z,0
2017-10-28T02:28:44.298Z,0
2017-10-28T02:29:57.549Z,0
2017-10-28T02:31:10.787Z,0
2017-10-28T02:32:24.067Z,0
2017-10-28T02:33:37.307Z,0
2017-10-28T02:34:50.566Z,0
2017-10-28T02:36:03.257Z,0
2017-10-28T02:37:15.493Z,0
2017-10-28T02:38:28.227Z,0
2017-10-28T02:39:40.951Z,0
2017-10-28T02:40:54.207Z,0
2017-10-28T02:42:07.468Z,0
2017-10-28T02:43:20.231Z,0
2017-10-28T02:44:33.488Z,0
2017-10-28T02:45:47.018Z,0
2017-10-28T02:46:59.709Z,0
2017-10-28T02:48:11.943Z,0
2017-10-28T02:49:25.207Z,0
2017-10-28T02:50:38.491Z,0
2017-10-28T02:51:51.210Z,0
2017-10-28T02:53:03.535Z,0
2017-10-28T02:54:16.283Z,0
2017-10-28T02:55:28.504Z,0
2017-10-28T02:56:41.822Z,0
2017-10-28T02:57:54.020Z,0
2017-10-28T02:59:05.678Z,0
2017-10-28T03:00:18.977Z,0
2017-10-28T03:01:31.745Z,0
2017-10-28T03:02:45.007Z,0
2017-10-28T03:03:58.297Z,0
2017-10-28T03:05:11.577Z,0
2017-10-28T03:06:24.836Z,0
2017-10-28T03:07:38.096Z,0
2017-10-28T03:08:50.848Z,0
2017-10-28T03:10:03.539Z,0
2017-10-28T03:11:15.243Z,0
2017-10-28T03:12:28.582Z,0
2017-10-28T03:13:40.806Z,0
2017-10-28T03:14:52.455Z,0
2017-10-28T03:16:05.124Z,0
2017-10-28T03:17:17.877Z,0
2017-10-28T03:18:29.521Z,0
2017-10-28T03:19:42.803Z,0
2017-10-28T03:20:55.496Z,0
2017-10-28T03:22:08.231Z,0
2017-10-28T03:23:20.954Z,0
2017-10-28T03:24:33.684Z,0
2017-10-28T03:25:46.976Z,0
2017-10-28T03:27:00.231Z,0
2017-10-28T03:28:13.513Z,0
2017-10-28T03:29:26.961Z,0
2017-10-28T03:30:40.231Z,0
2017-10-28T03:31:52.969Z,0
2017-10-28T03:33:06.243Z,0
2017-10-28T03:34:18.480Z,0
2017-10-28T03:35:31.772Z,0
2017-10-28T03:36:45.087Z,0
2017-10-28T03:37:58.357Z,0
2017-10-28T03:39:11.630Z,0
2017-10-28T03:40:24.901Z,0
2017-10-28T03:41:38.209Z,0
2017-10-28T03:42:51.463Z,0
2017-10-28T03:44:04.730Z,0
2017-10-28T03:45:17.957Z,0
2017-10-28T03:46:30.186Z,0
2017-10-28T03:47:43.477Z,0
2017-10-28T03:48:56.747Z,0
2017-10-28T03:50:09.483Z,0
2017-10-28T03:51:22.249Z,0
2017-10-28T03:52:35.557Z,0
2017-10-28T03:53:48.326Z,0
2017-10-28T03:55:01.079Z,0
2017-10-28T03:56:14.331Z,0
2017-10-28T03:57:27.059Z,0
2017-10-28T03:58:40.304Z,0
2017-10-28T03:59:53.498Z,0
2017-10-28T04:01:06.775Z,0
2017-10-28T04:02:19.515Z,0
2017-10-28T04:03:32.305Z,0
2017-10-28T04:04:45.613Z,0
2017-10-28T04:05:58.377Z,0
2017-10-28T04:07:11.144Z,0
2017-10-28T04:08:24.423Z,0
2017-10-28T04:09:37.710Z,0
2017-10-28T04:10:50.972Z,0
2017-10-28T04:12:03.748Z,0
2017-10-28T04:13:17.050Z,0
2017-10-28T04:14:30.392Z,0
2017-10-28T04:15:43.131Z,0
2017-10-28T04:16:56.439Z,0
2017-10-28T04:18:09.369Z,0
2017-10-28T04:19:22.599Z,0
2017-10-28T04:20:35.341Z,0
2017-10-28T04:21:48.128Z,0
2017-10-28T04:23:01.424Z,0
2017-10-28T04:24:14.189Z,0
2017-10-28T04:25:27.490Z,0
2017-10-28T04:26:40.758Z,0
2017-10-28T04:27:54.043Z,0
2017-10-28T04:29:07.304Z,0
2017-10-28T04:30:20.087Z,0
2017-10-28T04:31:32.817Z,0
2017-10-28T04:32:46.108Z,0
2017-10-28T04:33:58.327Z,0
2017-10-28T04:35:11.629Z,0
2017-10-28T04:36:24.899Z,0
2017-10-28T04:37:38.164Z,0
2017-10-28T04:38:51.425Z,0
2017-10-28T04:40:04.200Z,0
2017-10-28T04:41:17.478Z,0
2017-10-28T04:42:30.241Z,0
2017-10-28T04:43:43.486Z,0
2017-10-28T04:44:56.217Z,0
2017-10-28T04:46:08.441Z,0
2017-10-28T04:47:20.652Z,0
2017-10-28T04:48:33.926Z,0
2017-10-28T04:49:46.668Z,0
2017-10-28T04:50:58.863Z,0
2017-10-28T04:52:12.144Z,0
2017-10-28T04:53:24.911Z,0
2017-10-28T04:54:38.185Z,0
2017-10-28T04:55:50.911Z,0
2017-10-28T04:57:04.177Z,0
2017-10-28T04:58:16.930Z,0
2017-10-28T04:59:30.193Z,0
2017-10-28T05:00:42.948Z,0
2017-10-28T05:01:56.227Z,0
2017-10-28T05:03:08.974Z,0
2017-10-28T05:04:21.709Z,0
2017-10-28T05:05:33.906Z,0
2017-10-28T05:06:47.154Z,0
2017-10-28T05:07:59.888Z,0
2017-10-28T05:09:12.610Z,0
2017-10-28T05:10:25.353Z,0
2017-10-28T05:11:38.825Z,0
2017-10-28T05:12:51.508Z,0
2017-10-28T05:14:03.702Z,0
2017-10-28T05:15:16.430Z,0
2017-10-28T05:16:29.725Z,0
2017-10-28T05:17:42.483Z,0
2017-10-28T05:18:54.684Z,0
2017-10-28T05:20:07.971Z,0
2017-10-28T05:21:21.246Z,0
2017-10-28T05:22:34.004Z,0
2017-10-28T05:23:47.254Z,0
2017-10-28T05:25:00.496Z,0
2017-10-28T05:26:12.716Z,0
2017-10-28T05:27:25.454Z,0
2017-10-28T05:28:38.185Z,0
2017-10-28T05:29:50.962Z,0
2017-10-28T05:31:04.248Z,0
2017-10-28T05:32:16.499Z,0
2017-10-28T05:33:29.251Z,0
2017-10-28T05:34:41.503Z,0
2017-10-28T05:35:54.801Z,0
2017-10-28T05:37:07.549Z,0
2017-10-28T05:38:19.774Z,0
2017-10-28T05:39:32.015Z,0
2017-10-28T05:40:44.745Z,0
2017-10-28T05:41:58.033Z,0
2017-10-28T05:43:10.762Z,0
2017-10-28T05:44:24.229Z,0
2017-10-28T05:45:36.967Z,0
2017-10-28T05:46:50.237Z,0
2017-10-28T05:48:01.920Z,0
2017-10-28T05:49:15.208Z,0
2017-10-28T05:50:27.928Z,0
2017-10-28T05:51:41.245Z,0
2017-10-28T05:52:54.516Z,0
2017-10-28T05:54:07.255Z,0
2017-10-28T05:55:20.739Z,0
2017-10-28T05:56:34.032Z,0
2017-10-28T05:57:47.312Z,0
2017-10-28T05:58:59.035Z,0
2017-10-28T06:00:11.799Z,0
2017-10-28T06:01:24.525Z,0
2017-10-28T06:02:37.282Z,0
2017-10-28T06:03:50.544Z,0
2017-10-28T06:05:03.264Z,0
2017-10-28T06:06:16.569Z,0
2017-10-28T06:07:28.820Z,0
2017-10-28T06:08:41.568Z,0
2017-10-28T06:09:54.794Z,0
2017-10-28T06:11:07.551Z,0
2017-10-28T06:12:19.236Z,0
2017-10-28T06:13:32.534Z,0
2017-10-28T06:14:45.266Z,0
2017-10-28T06:15:57.990Z,0
2017-10-28T06:17:11.299Z,0
2017-10-28T06:18:24.070Z,0
2017-10-28T06:19:36.813Z,0
2017-10-28T06:20:49.515Z,0
2017-10-28T06:22:02.832Z,0
2017-10-28T06:23:16.125Z,0
2017-10-28T06:24:29.426Z,0
2017-10-28T06:25:42.158Z,0
2017-10-28T06:26:54.913Z,0
2017-10-28T06:28:07.095Z,0
2017-10-28T06:29:20.382Z,0
2017-10-28T06:30:33.166Z,0
2017-10-28T06:31:45.907Z,0
2017-10-28T06:32:58.618Z,0
2017-10-28T06:34:10.342Z,0
2017-10-28T06:35:23.057Z,0
2017-10-28T06:36:35.790Z,0
2017-10-28T06:37:48.553Z,0
2017-10-28T06:39:01.804Z,0
2017-10-28T06:40:15.078Z,0
2017-10-28T06:41:27.775Z,0
2017-10-28T06:42:39.469Z,0
2017-10-28T06:43:52.947Z,0
2017-10-28T06:45:06.219Z,0
2017-10-28T06:46:19.492Z,0
2017-10-28T06:47:32.777Z,0
2017-10-28T06:48:46.017Z,0
2017-10-28T06:49:58.771Z,0
2017-10-28T06:51:11.692Z,0
2017-10-28T06:52:24.961Z,0
2017-10-28T06:53:37.695Z,0
2017-10-28T06:54:50.963Z,0
2017-10-28T06:56:03.745Z,0
2017-10-28T06:57:16.241Z,0
2017-10-28T06:58:29.572Z,0
2017-10-28T06:59:42.875Z,0
2017-10-28T07:00:54.542Z,0
2017-10-28T07:02:07.822Z,0
2017-10-28T07:03:21.315Z,0
2017-10-28T07:04:34.583Z,0
2017-10-28T07:05:47.413Z,0
2017-10-28T07:07:00.698Z,0
2017-10-28T07:08:13.442Z,0
2017-10-28T07:09:26.732Z,0
2017-10-28T07:10:38.913Z,0
2017-10-28T07:11:51.159Z,0
2017-10-28T07:13:04.461Z,0
2017-10-28T07:14:17.212Z,0
2017-10-28T07:15:30.491Z,0
2017-10-28T07:16:43.818Z,0
2017-10-28T07:17:57.335Z,0
2017-10-28T07:19:10.108Z,0
2017-10-28T07:20:23.422Z,0
2017-10-28T07:21:36.728Z,0
2017-10-28T07:22:49.461Z,0
2017-10-28T07:24:02.243Z,0
2017-10-28T07:25:15.041Z,0
2017-10-28T07:26:28.346Z,0
2017-10-28T07:27:41.833Z,0
2017-10-28T07:28:54.608Z,0
2017-10-28T07:30:07.933Z,0
2017-10-28T07:31:20.666Z,0
2017-10-28T07:32:33.996Z,0
2017-10-28T07:33:46.746Z,0
2017-10-28T07:35:00.051Z,0
2017-10-28T07:36:12.817Z,0
2017-10-28T07:37:25.045Z,0
2017-10-28T07:38:37.795Z,0
2017-10-28T07:39:51.085Z,0
2017-10-28T07:41:03.856Z,0
2017-10-28T07:42:16.145Z,0
2017-10-28T07:43:29.487Z,0
2017-10-28T07:44:42.794Z,0
2017-10-28T07:45:54.465Z,0
2017-10-28T07:47:07.692Z,0
2017-10-28T07:48:20.480Z,0
2017-10-28T07:49:33.738Z,0
2017-10-28T07:50:47.081Z,0
2017-10-28T07:52:00.363Z,0
2017-10-28T07:53:13.123Z,0
2017-10-28T07:54:25.889Z,0
2017-10-28T07:55:38.629Z,0
2017-10-28T07:56:51.923Z,0
2017-10-28T07:58:05.184Z,0
2017-10-28T07:59:17.443Z,0
2017-10-28T08:00:30.767Z,0
2017-10-28T08:01:43.733Z,0
2017-10-28T08:02:56.452Z,0
2017-10-28T08:04:09.241Z,0
2017-10-28T08:05:21.519Z,0
2017-10-28T08:06:34.819Z,0
2017-10-28T08:07:47.586Z,0
2017-10-28T08:09:00.892Z,0
2017-10-28T08:10:14.215Z,0
2017-10-28T08:11:27.539Z,0
2017-10-28T08:12:40.784Z,0
2017-10-28T08:13:53.003Z,0
2017-10-28T08:15:05.750Z,0
2017-10-28T08:16:18.505Z,0
2017-10-28T08:17:31.278Z,0
2017-10-28T08:18:44.521Z,5
2017-10-28T08:19:57.804Z,5
2017-10-28T08:21:11.150Z,5
2017-10-28T08:22:23.914Z,5
2017-10-28T08:23:37.250Z,10
2017-10-28T08:24:50.508Z,10
2017-10-28T08:26:03.317Z,15
2017-10-28T08:27:16.602Z,20
2017-10-28T08:28:29.871Z,25
2017-10-28T08:29:43.178Z,30
2017-10-28T08:30:55.433Z,35
2017-10-28T08:32:08.712Z,40
2017-10-28T08:33:21.994Z,45
2017-10-28T08:34:35.314Z,50
2017-10-28T08:35:48.624Z,60
2017-10-28T08:37:01.930Z,65
2017-10-28T08:38:15.189Z,75
2017-10-28T08:39:28.476Z,85
2017-10-28T08:40:41.268Z,100
2017-10-28T08:41:54.069Z,110
2017-10-28T08:43:07.360Z,125
2017-10-28T08:44:20.093Z,150
2017-10-28T08:45:33.403Z,175
2017-10-28T08:46:46.174Z,215
2017-10-28T08:47:58.938Z,240
2017-10-28T08:49:12.245Z,290
2017-10-28T08:50:24.998Z,325
2017-10-28T08:51:37.728Z,340
2017-10-28T08:52:50.470Z,360
2017-10-28T08:54:03.232Z,370
2017-10-28T08:55:16.554Z,350
2017-10-28T08:56:28.231Z,345
2017-10-28T08:57:41.582Z,335
2017-10-28T08:58:54.877Z,330
2017-10-28T09:00:08.206Z,315
2017-10-28T09:01:20.436Z,340
2017-10-28T09:02:33.750Z,335
2017-10-28T09:03:46.514Z,360
2017-10-28T09:04:59.822Z,385
2017-10-28T09:06:13.110Z,405
2017-10-28T09:07:25.895Z,425
2017-10-28T09:08:38.102Z,430
2017-10-28T09:09:50.299Z,495
2017-10-28T09:11:03.071Z,515
2017-10-28T09:12:15.293Z,535
2017-10-28T09:13:28.288Z,505
2017-10-28T09:14:41.017Z,530
2017-10-28T09:15:53.837Z,610
2017-10-28T09:17:07.159Z,615
2017-10-28T09:18:19.929Z,610
2017-10-28T09:19:33.230Z,575
2017-10-28T09:20:46.524Z,575
2017-10-28T09:21:59.426Z,565
2017-10-28T09:23:12.699Z,590
2017-10-28T09:24:25.483Z,660
2017-10-28T09:25:38.783Z,735
2017-10-28T09:26:52.057Z,830
2017-10-28T09:28:04.286Z,820
2017-10-28T09:29:17.609Z,855
2017-10-28T09:30:30.902Z,950
2017-10-28T09:31:43.636Z,930
2017-10-28T09:32:56.590Z,940
2017-10-28T09:34:08.810Z,1055
2017-10-28T09:35:22.059Z,1035
2017-10-28T09:36:34.292Z,950
2017-10-28T09:37:47.079Z,1065
2017-10-28T09:39:00.393Z,1070
2017-10-28T09:40:13.691Z,1085
2017-10-28T09:41:26.982Z,1075
2017-10-28T09:42:40.282Z,1170
2017-10-28T09:43:52.508Z,1075
2017-10-28T09:45:05.272Z,1135
2017-10-28T09:46:18.609Z,1140
2017-10-28T09:47:31.402Z,1005
2017-10-28T09:48:44.144Z,1070
2017-10-28T09:49:57.408Z,1075
2017-10-28T09:51:10.698Z,1180
2017-10-28T09:52:23.487Z,1195
2017-10-28T09:53:36.465Z,1045
2017-10-28T09:54:49.224Z,1020
2017-10-28T09:56:02.032Z,1015
2017-10-28T09:57:14.240Z,1090
2017-10-28T09:58:27.559Z,1080
2017-10-28T09:59:40.859Z,1130
2017-10-28T10:00:53.591Z,1105
2017-10-28T10:02:06.888Z,1050
2017-10-28T10:03:20.227Z,1120
2017-10-28T10:04:33.745Z,1305
2017-10-28T10:05:47.061Z,1345
2017-10-28T10:07:00.941Z,1340
2017-10-28T10:08:13.801Z,1395
2017-10-28T10:09:26.066Z,1260
2017-10-28T10:10:38.836Z,1235
2017-10-28T10:11:52.361Z,1170
2017-10-28T10:13:05.659Z,1045
2017-10-28T10:14:19.077Z,1065
2017-10-28T10:15:32.406Z,1060
2017-10-28T10:16:44.622Z,1015
2017-10-28T10:17:57.408Z,1100
2017-10-28T10:19:10.726Z,1150
2017-10-28T10:20:23.525Z,1195
2017-10-28T10:21:35.246Z,1310
2017-10-28T10:22:47.475Z,1230
2017-10-28T10:24:00.225Z,1280
2017-10-28T10:25:13.749Z,1210
2017-10-28T10:26:27.189Z,1040
2017-10-28T10:27:40.500Z,1020
2017-10-28T10:28:53.785Z,1155
2017-10-28T10:30:06.038Z,1245
2017-10-28T10:31:18.270Z,1130
2017-10-28T10:32:31.581Z,1195
2017-10-28T10:33:44.891Z,1205
2017-10-28T10:34:57.665Z,1190
2017-10-28T10:36:10.969Z,1220
2017-10-28T10:37:23.722Z,1160
2017-10-28T10:38:37.021Z,1185
2017-10-28T10:39:50.352Z,1215
2017-10-28T10:41:03.662Z,1120
2017-10-28T10:42:15.872Z,1220
2017-10-28T10:43:28.112Z,1135
2017-10-28T10:44:41.416Z,1170
2017-10-28T10:45:54.149Z,1140
2017-10-28T10:47:05.841Z,1230
2017-10-28T10:48:18.087Z,1155
2017-10-28T10:49:30.832Z,1320
2017-10-28T10:50:44.112Z,1370
2017-10-28T10:51:56.886Z,1415
2017-10-28T10:53:09.643Z,1340
2017-10-28T10:54:22.993Z,1400
2017-10-28T10:55:36.136Z,1335
2017-10-28T10:56:49.023Z,1350
2017-10-28T10:58:01.250Z,1370
2017-10-28T10:59:14.587Z,1380
2017-10-28T11:00:27.875Z,1230
2017-10-28T11:01:40.644Z,1160
2017-10-28T11:02:53.388Z,1160
2017-10-28T11:04:06.352Z,1135
2017-10-28T11:05:19.672Z,1235
2017-10-28T11:06:32.993Z,1135
2017-10-28T11:07:45.782Z,1190
2017-10-28T11:08:58.575Z,1250
2017-10-28T11:10:11.894Z,1420
2017-10-28T11:11:25.198Z,1430
2017-10-28T11:12:38.534Z,1220
2017-10-28T11:13:51.785Z,1480
2017-10-28T11:15:04.533Z,1825
2017-10-28T11:16:17.306Z,1890
2017-10-28T11:17:30.105Z,1990
2017-10-28T11:18:42.904Z,1840
2017-10-28T11:19:55.698Z,1835
2017-10-28T11:21:08.440Z,1700
2017-10-28T11:22:21.739Z,1790
2017-10-28T11:23:35.088Z,1865
2017-10-28T11:24:47.902Z,1775
2017-10-28T11:26:01.241Z,1750
2017-10-28T11:27:14.014Z,1810
2017-10-28T11:28:27.384Z,1705
2017-10-28T11:29:40.700Z,1785
2017-10-28T11:30:54.035Z,1615
2017-10-28T11:32:06.251Z,1375
2017-10-28T11:33:19.034Z,1460
2017-10-28T11:34:31.289Z,1610
2017-10-28T11:35:43.766Z,1725
2017-10-28T11:36:57.109Z,1175
2017-10-28T11:38:09.886Z,1375
2017-10-28T11:39:23.208Z,1130
2017-10-28T11:40:36.535Z,1095
2017-10-28T11:41:49.817Z,1235
2017-10-28T11:43:03.131Z,1315
2017-10-28T11:44:16.483Z,1170
2017-10-28T11:45:29.249Z,1535
2017-10-28T11:46:42.551Z,1620
2017-10-28T11:47:55.798Z,1950
2017-10-28T11:49:09.107Z,2000
2017-10-28T11:50:21.364Z,1710
2017-10-28T11:51:34.236Z,1855
2017-10-28T11:52:47.080Z,1885
2017-10-28T11:53:59.316Z,1735
2017-10-28T11:55:11.640Z,1915
2017-10-28T11:56:24.393Z,1450
2017-10-28T11:57:37.644Z,1870
2017-10-28T11:58:50.408Z,1960
2017-10-28T12:00:03.721Z,1975
2017-10-28T12:01:15.968Z,1460
2017-10-28T12:02:28.727Z,1830
2017-10-28T12:03:42.039Z,1920
2017-10-28T12:04:54.519Z,1800
2017-10-28T12:06:07.819Z,1820
2017-10-28T12:07:20.559Z,1995
2017-10-28T12:08:33.308Z,2100
2017-10-28T12:09:46.063Z,2205
2017-10-28T12:10:59.426Z,2145
2017-10-28T12:12:12.938Z,1990
2017-10-28T12:13:25.214Z,1840
2017-10-28T12:14:38.479Z,1865
2017-10-28T12:15:51.790Z,1825
2017-10-28T12:17:04.573Z,2150
2017-10-28T12:18:17.878Z,1370
2017-10-28T12:19:31.197Z,2385
2017-10-28T12:20:44.448Z,2115
2017-10-28T12:21:57.230Z,2530
2017-10-28T12:23:10.668Z,2015
2017-10-28T12:24:23.526Z,2380
2017-10-28T12:25:36.537Z,2545
2017-10-28T12:26:49.320Z,2725
2017-10-28T12:28:01.657Z,2800
2017-10-28T12:29:14.959Z,2780
2017-10-28T12:30:27.730Z,2445
2017-10-28T12:31:41.076Z,1870
2017-10-28T12:32:53.845Z,2625
2017-10-28T12:34:06.275Z,2720
2017-10-28T12:35:19.046Z,2570
2017-10-28T12:36:32.327Z,2715
2017-10-28T12:37:45.094Z,2450
2017-10-28T12:38:57.885Z,1640
2017-10-28T12:40:10.675Z,1615
2017-10-28T12:41:23.686Z,3115
2017-10-28T12:42:37.020Z,1605
2017-10-28T12:43:49.791Z,1820
2017-10-28T12:45:02.036Z,1920
2017-10-28T12:46:15.390Z,1870
2017-10-28T12:47:28.693Z,1620
2017-10-28T12:48:41.408Z,1095
2017-10-28T12:49:54.739Z,2065
2017-10-28T12:51:08.322Z,1205
2017-10-28T12:52:21.108Z,1390
2017-10-28T12:53:33.532Z,3115
2017-10-28T12:54:46.307Z,2045
2017-10-28T12:55:59.091Z,1175
2017-10-28T12:57:12.518Z,1125
2017-10-28T12:58:25.848Z,2445
2017-10-28T12:59:37.017Z,1050
2017-10-28T13:00:49.329Z,2020
2017-10-28T13:02:02.613Z,940
2017-10-28T13:03:15.959Z,780
2017-10-28T13:04:28.719Z,1130
2017-10-28T13:05:41.488Z,3480
2017-10-28T13:06:54.225Z,3415
2017-10-28T13:08:05.912Z,3850
2017-10-28T13:09:19.302Z,3620
2017-10-28T13:10:32.603Z,4055
2017-10-28T13:11:44.333Z,4075
2017-10-28T13:12:57.055Z,3945
2017-10-28T13:14:10.384Z,3910
2017-10-28T13:15:23.670Z,3960
2017-10-28T13:16:35.876Z,4055
2017-10-28T13:17:49.151Z,1440
2017-10-28T13:19:01.905Z,4300
2017-10-28T13:20:28.440Z,4465
2017-10-28T13:21:42.879Z,1450
2017-10-28T13:22:56.926Z,4230
2017-10-28T13:24:11.144Z,1665
2017-10-28T13:25:25.240Z,3305
2017-10-28T13:26:39.264Z,4265
2017-10-28T13:27:53.300Z,4335
2017-10-28T13:29:07.487Z,3900
2017-10-28T13:30:21.526Z,3545
2017-10-28T13:31:35.890Z,4370
2017-10-28T13:32:49.925Z,4540
2017-10-28T13:34:03.388Z,4235
2017-10-28T13:35:17.369Z,2700
2017-10-28T13:36:30.875Z,4145
2017-10-28T13:37:44.907Z,4420
2017-10-28T13:38:58.576Z,3260
2017-10-28T13:40:12.913Z,3600
2017-10-28T13:41:27.371Z,4025
2017-10-28T13:42:41.974Z,3415
2017-10-28T13:43:56.325Z,3245
2017-10-28T13:45:09.755Z,3280
2017-10-28T13:46:23.439Z,2340
2017-10-28T13:47:37.562Z,4190
2017-10-28T13:48:51.550Z,3700
2017-10-28T13:50:05.126Z,3005
2017-10-28T13:51:19.956Z,2590
2017-10-28T13:52:33.858Z,4115
2017-10-28T13:53:48.162Z,3955
2017-10-28T13:55:02.615Z,2490
2017-10-28T13:56:16.509Z,1605
2017-10-28T13:57:30.332Z,3365
2017-10-28T13:58:44.298Z,2475
2017-10-28T14:00:02.755Z,3520
2017-10-28T14:01:16.668Z,2360
2017-10-28T14:02:29.808Z,1405
2017-10-28T14:03:43.195Z,4290
2017-10-28T14:04:56.180Z,4135
2017-10-28T14:06:09.746Z,4110
2017-10-28T14:07:22.020Z,1380
2017-10-28T14:08:35.347Z,4725
2017-10-28T14:09:48.875Z,4250
2017-10-28T14:11:02.529Z,1325
2017-10-28T14:12:16.325Z,4390
2017-10-28T14:13:29.710Z,4075
2017-10-28T14:14:42.591Z,4135
2017-10-28T14:15:55.485Z,3990
2017-10-28T14:17:07.790Z,4075
2017-10-28T14:18:21.107Z,3690
2017-10-28T14:19:34.519Z,3590
2017-10-28T14:20:47.868Z,3815
2017-10-28T14:21:59.579Z,3615
2017-10-28T14:23:12.375Z,3865
2017-10-28T14:24:24.653Z,3605
2017-10-28T14:25:37.599Z,3805
2017-10-28T14:26:50.408Z,3700
2017-10-28T14:28:03.775Z,3625
2017-10-28T14:29:17.094Z,4075
2017-10-28T14:30:29.890Z,2305
2017-10-28T14:31:42.699Z,3980
2017-10-28T14:32:56.218Z,4670
2017-10-28T14:34:09.199Z,4595
2017-10-28T14:35:22.519Z,2565
2017-10-28T14:36:35.320Z,4270
2017-10-28T14:37:48.083Z,2535
2017-10-28T14:39:01.400Z,4170
2017-10-28T14:40:14.156Z,4325
2017-10-28T14:41:26.386Z,4175
2017-10-28T14:42:39.769Z,4060
2017-10-28T14:43:53.104Z,3885
2017-10-28T14:45:05.376Z,4315
2017-10-28T14:46:18.741Z,1225
2017-10-28T14:47:31.566Z,1575
2017-10-28T14:48:44.900Z,1180
2017-10-28T14:49:58.228Z,1145
2017-10-28T14:51:11.536Z,1320
2017-10-28T14:52:23.904Z,4315
2017-10-28T14:53:37.246Z,3975
2017-10-28T14:54:49.515Z,4375
2017-10-28T14:56:02.878Z,4175
2017-10-28T14:57:16.201Z,3040
2017-10-28T14:58:28.952Z,4415
2017-10-28T14:59:42.521Z,4615
2017-10-28T15:00:55.346Z,4165
2017-10-28T15:02:08.166Z,4365
2017-10-28T15:03:21.543Z,1490
2017-10-28T15:04:34.652Z,1400
2017-10-28T15:05:48.884Z,3545
2017-10-28T15:07:03.118Z,3470
2017-10-28T15:08:17.418Z,1975
2017-10-28T15:09:30.456Z,1715
2017-10-28T15:10:43.986Z,2075
2017-10-28T15:11:56.453Z,1535
2017-10-28T15:13:10.172Z,4520
2017-10-28T15:14:23.527Z,4765
2017-10-28T15:15:36.760Z,1530
2017-10-28T15:16:50.361Z,2300
2017-10-28T15:18:03.283Z,1305
2017-10-28T15:19:16.629Z,1710
2017-10-28T15:20:28.316Z,1665
2017-10-28T15:21:40.548Z,4705
2017-10-28T15:22:53.896Z,2020
2017-10-28T15:24:07.496Z,4760
2017-10-28T15:25:20.342Z,1865
2017-10-28T15:26:33.214Z,1815
2017-10-28T15:27:45.507Z,4505
2017-10-28T15:28:58.544Z,5080
2017-10-28T15:30:11.383Z,1585
2017-10-28T15:31:24.203Z,5065
2017-10-28T15:32:37.562Z,1845
2017-10-28T15:33:50.918Z,1835
2017-10-28T15:35:04.049Z,4745
2017-10-28T15:36:18.630Z,1900
2017-10-28T15:37:31.145Z,1320
2017-10-28T15:38:44.736Z,1690
2017-10-28T15:39:58.993Z,1435
2017-10-28T15:41:13.186Z,1385
2017-10-28T15:42:26.159Z,1595
2017-10-28T15:43:38.987Z,1545
2017-10-28T15:44:51.280Z,4600
2017-10-28T15:46:03.051Z,1485
2017-10-28T15:47:15.888Z,1685
2017-10-28T15:48:28.194Z,1675
2017-10-28T15:49:40.535Z,1705
2017-10-28T15:50:53.902Z,1450
2017-10-28T15:52:06.174Z,1785
2017-10-28T15:53:18.493Z,1465
2017-10-28T15:54:32.202Z,2045
2017-10-28T15:55:45.187Z,4235
2017-10-28T15:56:58.186Z,4110
2017-10-28T15:58:10.775Z,1435
2017-10-28T15:59:23.824Z,4500
2017-10-28T16:00:37.921Z,4595
2017-10-28T16:01:50.856Z,2700
2017-10-28T16:03:03.814Z,2055
2017-10-28T16:04:17.230Z,1480
2017-10-28T16:05:31.015Z,4715
2017-10-28T16:06:44.024Z,2110
2017-10-28T16:07:57.578Z,1485
2017-10-28T16:09:10.466Z,1610
2017-10-28T16:10:24.592Z,1390
2017-10-28T16:11:38.800Z,1525
2017-10-28T16:12:53.025Z,4250
2017-10-28T16:14:06.538Z,1335
2017-10-28T16:15:19.527Z,1175
2017-10-28T16:16:33.322Z,1425
2017-10-28T16:17:47.600Z,1835
2017-10-28T16:19:01.185Z,4405
2017-10-28T16:20:14.868Z,4205
2017-10-28T16:21:28.542Z,1105
2017-10-28T16:22:41.285Z,1185
2017-10-28T16:23:55.368Z,1555
2017-10-28T16:25:09.586Z,1550
2017-10-28T16:26:23.226Z,1185
2017-10-28T16:27:36.233Z,1685
2017-10-28T16:28:49.883Z,2995
2017-10-28T16:30:03.512Z,1305
2017-10-28T16:31:16.075Z,3230
2017-10-28T16:32:30.356Z,1420
2017-10-28T16:33:44.109Z,3935
2017-10-28T16:34:57.424Z,1410
2017-10-28T16:36:10.762Z,1085
2017-10-28T16:37:24.114Z,1175
2017-10-28T16:38:38.258Z,1120
2017-10-28T16:39:51.873Z,1230
2017-10-28T16:41:05.396Z,2750
2017-10-28T16:42:18.853Z,1105
2017-10-28T16:43:32.251Z,950
2017-10-28T16:44:45.686Z,1270
2017-10-28T16:45:59.470Z,1385
2017-10-28T16:47:13.419Z,1140
2017-10-28T16:48:27.410Z,1170
2017-10-28T16:49:40.479Z,1830
2017-10-28T16:50:52.889Z,1410
2017-10-28T16:52:06.526Z,1565
2017-10-28T16:53:19.873Z,1345
2017-10-28T16:54:33.212Z,1415
2017-10-28T16:55:46.027Z,1740
2017-10-28T16:56:58.822Z,2795
2017-10-28T16:58:12.390Z,1310
2017-10-28T16:59:25.397Z,1160
2017-10-28T17:00:38.764Z,1150
2017-10-28T17:01:51.039Z,970
2017-10-28T17:03:03.865Z,1055
2017-10-28T17:04:16.083Z,1045
2017-10-28T17:05:29.442Z,885